Flight Track Log - Related Links

Times and Time Zones

All times are in EDT time to prevent confusion due to time zone crossing. See the CHQ5098 flight status page for this flight to view local times or setup timezone preferences in your user account.

Time Position Orientation Groundspeed Altitude Reporting Facility
EDT Latitude Longitude Course Direction KTS km/h feet Rate Location/Type
Thu 22:00:12 42.0000 -87.9333 346° North 150 278 2.000  Level Chicago TRACON
Thu 22:01:06 42.0500 -87.9167 14° North 193 357 3.700 1.684 Climbing Chicago TRACON
Thu 22:02:00 42.1918 -87.9709 340° North  Level FlightAware Approximate
Thu 22:02:06 42.1167 -87.9000 11° North 261 483 5.200  Level Chicago TRACON
Thu 22:03:00 42.2668 -87.9959 350° North  Level FlightAware Approximate
Thu 22:03:13 42.1856 -87.8731 16° North 275 509 8.100  Level Chicago Center
Thu 22:04:00 42.3431 -88.0149 350° North  Level FlightAware Approximate
Thu 22:04:14 42.2586 -87.8478 14° North 274 507 11.000  Level Chicago Center
Thu 22:05:00 42.4185 -88.0395 346° North  Level FlightAware Approximate
Thu 22:05:16 42.3339 -87.8550 356° North 280 518 12.000  Level Chicago Center
Thu 22:06:18 42.4319 -87.8586 358° North 300 555 11.900 -49 Descending Chicago Center
Thu 22:07:19 42.5136 -87.8397 10° North 300 555 11.900 49 Level Chicago Center
Thu 22:08:21 42.5942 -87.8175 11° North 297 550 12.000 48 Climbing Chicago Center
Thu 22:09:23 42.6756 -87.7947 12° North 297 550 12.000  Level Chicago Center
Thu 22:10:24 42.7583 -87.7722 11° North 303 562 12.000  Level Chicago Center
Thu 22:11:26 42.8378 -87.7492 12° North 295 546 12.000  Level Chicago Center
Thu 22:12:27 42.9275 -87.7267 10° North 283 525 12.000 293 Level Chicago Center
Thu 22:13:29 43.0033 -87.7042 12° North 280 518 12.600 780 Climbing Chicago Center
Thu 22:14:30 43.0806 -87.6836 11° North 280 518 13.600 683 Climbing Chicago Center
Thu 22:15:32 43.1619 -87.6614 11° North 295 546 14.000 195 Climbing Chicago Center
Thu 22:16:33 43.2458 -87.6381 11° North 306 566 14.000 -49 Level Chicago Center
Thu 22:17:35 43.3292 -87.6497 354° North 307 568 13.900  Descending Chicago Center
Thu 22:18:36 43.4089 -87.6836 343° North 302 560 14.000 49 Climbing Chicago Center
Thu 22:19:38 43.5003 -87.7206 344° North 295 546 14.000  Level Chicago Center
Thu 22:20:39 43.5769 -87.7531 343° North 290 538 14.000  Level Chicago Center
Thu 22:21:17 43.6261 -87.7736 343° North 286 529 14.000 -242 Level Minneapolis Center
Thu 22:22:18 43.7031 -87.8036 344° North 287 531 13.600 -393 Descending Minneapolis Center
Thu 22:23:19 43.7808 -87.8239 349° North 284 526 13.200 -443 Descending Minneapolis Center
Thu 22:24:20 43.8628 -87.8472 348° North 297 550 12.700 -738 Descending Minneapolis Center
Thu 22:25:21 43.9506 -87.8514 358° North 314 581 11.700 -1.073 Descending Minneapolis Center
Thu 22:26:23 44.0397 -87.8583 357° North 319 591 10.500 -1.268 Descending Minneapolis Center
Thu 22:27:24 44.1119 -87.8997 338° Northwest 282 523 9.100 -1.525 Descending Minneapolis Center
Thu 22:28:25 44.1797 -87.9544 330° Northwest 280 518 7.400 -1.623 Descending Minneapolis Center
Thu 22:29:26 44.2428 -88.0108 327° Northwest 274 507 5.800 -1.721 Descending Minneapolis Center
Thu 22:30:27 44.3061 -88.0908 318° Northwest 266 492 3.900 -1.426 Descending Minneapolis Center
Thu 22:31:28 44.3597 -88.1350 330° Northwest 245 454 2.900 -984 Descending Minneapolis Center

Login

Don't have an account? Register now (free) for customized features, flight alerts, and more!